createdAt,value
2023-03-02T00:00:39.230Z,35.22
2023-03-02T00:03:06.182Z,35.45
2023-03-02T00:05:34.536Z,41.33
2023-03-02T00:08:02.975Z,31.33
2023-03-02T00:10:30.007Z,38.15
2023-03-02T00:12:58.061Z,33.90
2023-03-02T00:15:24.629Z,33.80
2023-03-02T00:17:51.036Z,31.92
2023-03-02T00:20:17.817Z,44.38
2023-03-02T00:22:45.813Z,31.30
2023-03-02T00:25:14.324Z,33.53
2023-03-02T00:27:41.216Z,33.17
2023-03-02T00:30:10.088Z,40.03
2023-03-02T00:32:36.736Z,33.03
2023-03-02T00:35:04.115Z,33.25
2023-03-02T00:37:30.730Z,38.10
2023-03-02T00:39:57.137Z,32.53
2023-03-02T00:42:23.582Z,31.10
2023-03-02T00:44:52.430Z,33.80
2023-03-02T00:47:19.126Z,40.95
2023-03-02T00:49:49.357Z,34.70
2023-03-02T00:52:16.807Z,29.42
2023-03-02T00:54:43.264Z,41.00
2023-03-02T00:57:09.834Z,29.50
2023-03-02T00:59:38.447Z,34.30
2023-03-02T01:02:13.005Z,28.88
2023-03-02T01:04:42.063Z,36.13
2023-03-02T01:07:11.748Z,37.40
2023-03-02T01:09:40.045Z,35.67
2023-03-02T01:12:11.190Z,39.05
2023-03-02T01:14:39.762Z,35.10
2023-03-02T01:17:07.234Z,36.33
2023-03-02T01:19:34.943Z,35.75
2023-03-02T01:22:02.091Z,35.83
2023-03-02T01:24:28.769Z,34.60
2023-03-02T01:26:55.205Z,34.47
2023-03-02T01:29:21.665Z,32.17
2023-03-02T01:31:48.171Z,33.78
2023-03-02T01:34:15.214Z,35.15
2023-03-02T01:36:45.447Z,31.40
2023-03-02T01:39:15.907Z,34.03
2023-03-02T01:41:44.314Z,34.38
2023-03-02T01:44:33.634Z,38.42
2023-03-02T01:47:00.519Z,34.50
2023-03-02T01:49:27.856Z,34.97
2023-03-02T01:51:58.394Z,35.77
2023-03-02T01:54:26.189Z,35.00
2023-03-02T01:57:02.410Z,34.40
2023-03-02T01:59:31.242Z,34.13
2023-03-02T02:02:01.841Z,34.58
2023-03-02T02:07:03.237Z,34.40
2023-03-02T02:09:38.736Z,33.30
2023-03-02T02:12:05.869Z,35.33
2023-03-02T02:14:33.603Z,37.88
2023-03-02T02:17:00.129Z,32.88
2023-03-02T02:19:55.652Z,35.97
2023-03-02T02:22:54.020Z,35.20
2023-03-02T02:25:36.410Z,30.73
2023-03-02T02:28:08.429Z,31.88
2023-03-02T02:30:38.060Z,34.28
2023-03-02T02:33:05.754Z,32.45
2023-03-02T02:35:36.486Z,33.72
2023-03-02T02:38:06.548Z,32.20
2023-03-02T02:40:49.602Z,33.20
2023-03-02T02:43:20.954Z,31.73
2023-03-02T02:45:52.280Z,31.67
2023-03-02T02:50:47.345Z,39.17
2023-03-02T02:53:19.375Z,33.20
2023-03-02T02:55:49.376Z,33.90
2023-03-02T02:58:28.395Z,31.95
2023-03-02T03:00:55.794Z,32.30
2023-03-02T03:03:33.962Z,31.85
2023-03-02T03:06:07.161Z,34.10
2023-03-02T03:08:45.595Z,29.48
2023-03-02T03:11:27.571Z,37.70
2023-03-02T03:14:10.594Z,31.38
2023-03-02T03:16:39.609Z,30.55
2023-03-02T03:19:14.246Z,32.15
2023-03-02T03:21:40.697Z,34.13
2023-03-02T03:24:07.994Z,36.72
2023-03-02T03:26:35.107Z,30.45
2023-03-02T03:29:03.047Z,30.13
2023-03-02T03:31:29.945Z,30.00
2023-03-02T03:34:01.612Z,31.42
2023-03-02T03:36:33.580Z,32.45
2023-03-02T03:39:01.256Z,34.40
2023-03-02T03:41:29.654Z,31.20
2023-03-02T03:43:56.624Z,32.08
2023-03-02T03:46:24.076Z,27.13
2023-03-02T03:48:51.417Z,30.75
2023-03-02T03:51:18.148Z,29.23
2023-03-02T03:53:46.132Z,30.48
2023-03-02T03:56:12.983Z,33.30
2023-03-02T03:58:39.577Z,30.98
2023-03-02T04:01:06.341Z,29.95
2023-03-02T04:03:33.658Z,31.77
2023-03-02T04:06:00.681Z,27.58
2023-03-02T04:08:27.281Z,35.67
2023-03-02T04:10:53.713Z,28.52
2023-03-02T04:13:20.191Z,28.85
2023-03-02T04:15:47.197Z,30.67
2023-03-02T04:18:14.319Z,29.70
2023-03-02T04:20:40.777Z,32.08
2023-03-02T04:23:07.317Z,30.77
2023-03-02T04:25:34.125Z,35.53
2023-03-02T04:28:06.713Z,38.15
2023-03-02T04:30:36.831Z,32.67
2023-03-02T04:33:03.861Z,26.20
2023-03-02T04:35:31.944Z,33.83
2023-03-02T04:38:00.459Z,33.42
2023-03-02T04:40:26.994Z,31.40
2023-03-02T04:42:53.406Z,28.85
2023-03-02T04:45:19.852Z,32.95
2023-03-02T04:47:46.340Z,34.55
2023-03-02T04:50:14.897Z,35.00
2023-03-02T04:52:41.923Z,29.10
2023-03-02T04:55:08.837Z,38.13
2023-03-02T04:57:35.301Z,32.03
2023-03-02T05:00:01.903Z,32.40
2023-03-02T05:02:28.739Z,42.72
2023-03-02T05:04:55.359Z,30.50
2023-03-02T05:07:21.862Z,33.78
2023-03-02T05:09:48.264Z,35.35
2023-03-02T05:12:14.713Z,32.83
2023-03-02T05:14:41.446Z,38.75
2023-03-02T05:17:07.847Z,28.90
2023-03-02T05:19:34.399Z,34.92
2023-03-02T05:22:01.082Z,34.58
2023-03-02T05:24:27.596Z,30.98
2023-03-02T05:26:54.149Z,32.25
2023-03-02T05:29:20.578Z,34.95
2023-03-02T05:31:47.850Z,32.90
2023-03-02T05:34:16.375Z,33.00
2023-03-02T05:36:43.530Z,33.95
2023-03-02T05:39:09.987Z,32.80
2023-03-02T05:41:37.209Z,37.30
2023-03-02T05:44:04.609Z,30.75
2023-03-02T05:46:31.407Z,35.83
2023-03-02T05:48:58.163Z,30.85
2023-03-02T05:51:24.637Z,34.65
2023-03-02T05:53:51.097Z,32.83
2023-03-02T05:56:17.713Z,32.95
2023-03-02T05:58:44.186Z,33.70
2023-03-02T06:01:13.659Z,35.53
2023-03-02T06:03:42.138Z,32.10
2023-03-02T06:06:08.588Z,36.13
2023-03-02T06:08:35.115Z,52.97
2023-03-02T06:11:01.686Z,41.55
2023-03-02T06:13:28.366Z,47.88
2023-03-02T06:15:54.848Z,46.25
2023-03-02T06:18:21.268Z,36.45
2023-03-02T06:20:47.700Z,30.25
2023-03-02T06:23:14.139Z,32.90
2023-03-02T06:25:43.646Z,31.15
2023-03-02T06:28:10.113Z,33.42
2023-03-02T06:30:36.500Z,33.15
2023-03-02T06:33:02.984Z,38.80
2023-03-02T06:35:29.553Z,32.80
2023-03-02T06:37:56.033Z,37.20
2023-03-02T06:40:22.460Z,35.65
2023-03-02T06:42:48.927Z,37.65
2023-03-02T06:45:15.405Z,33.88
2023-03-02T06:47:41.870Z,33.72
2023-03-02T06:50:09.604Z,32.45
2023-03-02T06:52:36.135Z,37.50
2023-03-02T06:55:03.281Z,31.73
2023-03-02T06:57:33.795Z,31.05
2023-03-02T07:00:07.455Z,36.05
2023-03-02T07:02:33.924Z,34.55
2023-03-02T07:05:00.323Z,36.95
2023-03-02T07:07:26.756Z,34.92
2023-03-02T07:09:53.167Z,37.85
2023-03-02T07:12:19.657Z,37.13
2023-03-02T07:14:46.037Z,35.55
2023-03-02T07:17:12.451Z,28.95
2023-03-02T07:19:40.800Z,30.52
2023-03-02T07:22:07.356Z,31.88
2023-03-02T07:24:33.838Z,31.80
2023-03-02T07:27:00.291Z,32.85
2023-03-02T07:29:26.838Z,32.42
2023-03-02T07:31:57.062Z,31.88
2023-03-02T07:34:27.385Z,29.15
2023-03-02T07:36:54.072Z,29.00
2023-03-02T07:39:20.729Z,33.50
2023-03-02T07:41:47.150Z,31.63
2023-03-02T07:44:14.068Z,29.88
2023-03-02T07:46:40.539Z,30.85
2023-03-02T07:49:06.970Z,31.80
2023-03-02T07:51:33.656Z,32.65
2023-03-02T07:54:02.771Z,26.98
2023-03-02T07:56:29.507Z,29.70
2023-03-02T07:58:56.207Z,32.55
2023-03-02T08:01:22.715Z,28.90
2023-03-02T08:03:49.333Z,30.88
2023-03-02T08:06:15.781Z,29.90
2023-03-02T08:08:42.349Z,32.25
2023-03-02T08:11:11.480Z,30.00
2023-03-02T08:13:38.499Z,28.95
2023-03-02T08:16:07.150Z,31.05
2023-03-02T08:18:33.994Z,32.10
2023-03-02T08:21:00.532Z,26.88
2023-03-02T08:23:27.444Z,27.33
2023-03-02T08:25:54.368Z,29.10
2023-03-02T08:28:21.742Z,28.08
2023-03-02T08:30:59.001Z,28.60
2023-03-02T08:33:26.873Z,31.95
2023-03-02T08:36:06.267Z,28.25
2023-03-02T08:38:33.931Z,27.38
2023-03-02T08:41:09.338Z,34.40
2023-03-02T08:43:36.057Z,30.52
2023-03-02T08:46:03.143Z,29.35
2023-03-02T08:48:30.153Z,34.03
2023-03-02T08:51:06.002Z,31.83
2023-03-02T08:53:38.499Z,30.67
2023-03-02T08:56:07.423Z,30.88
2023-03-02T08:58:33.838Z,31.88
2023-03-02T09:01:00.280Z,34.28
2023-03-02T09:03:26.693Z,33.88
2023-03-02T09:05:53.145Z,30.52
2023-03-02T09:08:19.588Z,36.95
2023-03-02T09:10:46.004Z,33.33
2023-03-02T09:13:12.509Z,30.95
2023-03-02T09:15:38.912Z,36.63
2023-03-02T09:18:05.383Z,28.70
2023-03-02T09:20:33.873Z,27.70
2023-03-02T09:23:00.304Z,28.75
2023-03-02T09:25:26.732Z,28.90
2023-03-02T09:27:53.160Z,31.70
2023-03-02T09:30:19.747Z,34.40
2023-03-02T09:32:46.412Z,28.13
2023-03-02T09:35:12.970Z,28.75
2023-03-02T09:37:39.499Z,31.10
2023-03-02T09:40:16.379Z,31.48
2023-03-02T09:42:56.883Z,26.02
2023-03-02T09:45:57.861Z,28.37
2023-03-02T09:48:35.142Z,34.67
2023-03-02T09:51:31.604Z,26.52
2023-03-02T09:54:20.919Z,28.52
2023-03-02T09:56:57.634Z,33.67
2023-03-02T09:59:40.676Z,28.00
2023-03-02T10:02:29.786Z,28.58
2023-03-02T10:05:00.643Z,25.20
2023-03-02T10:07:30.071Z,30.30
2023-03-02T10:10:15.282Z,30.17
2023-03-02T10:12:53.461Z,29.15
2023-03-02T10:15:35.955Z,28.88
2023-03-02T10:18:17.032Z,25.63
2023-03-02T10:21:02.214Z,27.95
2023-03-02T10:23:49.251Z,25.95
2023-03-02T10:26:21.695Z,28.38
2023-03-02T10:28:54.238Z,30.95
2023-03-02T10:31:32.148Z,28.67
2023-03-02T10:33:59.446Z,29.70
2023-03-02T10:36:31.625Z,25.88
2023-03-02T10:39:00.448Z,23.38
2023-03-02T10:41:32.764Z,34.97
2023-03-02T10:44:04.944Z,26.77
2023-03-02T10:46:46.151Z,26.60
2023-03-02T10:49:34.029Z,25.13
2023-03-02T10:52:00.440Z,29.05
2023-03-02T10:54:28.792Z,31.48
2023-03-02T10:56:59.401Z,26.42
2023-03-02T10:59:31.968Z,21.75
2023-03-02T11:02:03.402Z,26.60
2023-03-02T11:04:30.802Z,26.90
2023-03-02T11:07:08.747Z,23.10
2023-03-02T11:09:35.180Z,27.38
2023-03-02T11:12:01.892Z,21.60
2023-03-02T11:14:28.312Z,23.05
2023-03-02T11:16:56.663Z,22.33
2023-03-02T11:19:31.317Z,25.15
2023-03-02T11:22:10.060Z,22.60
2023-03-02T11:24:42.245Z,23.73
2023-03-02T11:27:20.156Z,28.60
2023-03-02T11:30:10.121Z,23.73
2023-03-02T11:33:04.042Z,20.88
2023-03-02T11:35:52.550Z,23.52
2023-03-02T11:38:47.453Z,29.10
2023-03-02T11:41:27.296Z,23.98
2023-03-02T11:43:54.838Z,24.95
2023-03-02T11:46:32.538Z,25.95
2023-03-02T11:49:13.632Z,26.25
2023-03-02T11:51:57.832Z,22.90
2023-03-02T11:54:46.032Z,26.30
2023-03-02T11:57:23.008Z,23.30
2023-03-02T11:59:50.982Z,19.98
2023-03-02T12:02:18.321Z,25.30
2023-03-02T12:04:44.822Z,26.48
2023-03-02T12:07:22.796Z,29.55
2023-03-02T12:10:02.521Z,23.48
2023-03-02T12:12:36.745Z,21.70
2023-03-02T12:15:03.525Z,20.73
2023-03-02T12:17:33.301Z,22.85
2023-03-02T12:20:24.475Z,21.77
2023-03-02T12:22:50.957Z,34.42
2023-03-02T12:25:20.414Z,23.23
2023-03-02T12:27:49.765Z,20.67
2023-03-02T12:30:16.664Z,26.45
2023-03-02T12:33:10.098Z,19.52
2023-03-02T12:35:37.100Z,20.83
2023-03-02T12:38:16.330Z,23.50
2023-03-02T12:41:20.101Z,19.67
2023-03-02T12:44:01.427Z,24.42
2023-03-02T12:49:20.339Z,21.75
2023-03-02T12:51:58.542Z,23.30
2023-03-02T12:54:27.826Z,21.35
2023-03-02T12:57:14.549Z,22.08
2023-03-02T12:59:41.496Z,17.92
2023-03-02T13:02:23.738Z,18.10
2023-03-02T13:05:09.065Z,21.30
2023-03-02T13:07:43.790Z,22.35
2023-03-02T13:10:25.729Z,18.83
2023-03-02T13:12:52.326Z,18.65
2023-03-02T13:15:18.907Z,18.83
2023-03-02T13:17:54.145Z,23.98
2023-03-02T13:20:24.430Z,17.20
2023-03-02T13:22:51.417Z,17.25
2023-03-02T13:25:27.171Z,24.77
2023-03-02T13:28:00.611Z,19.60
2023-03-02T13:30:30.385Z,17.75
2023-03-02T13:33:17.528Z,17.25
2023-03-02T13:35:47.355Z,22.83
2023-03-02T13:38:17.402Z,17.50
2023-03-02T13:40:48.241Z,16.48
2023-03-02T13:43:36.322Z,18.77
2023-03-02T13:46:05.904Z,22.92
2023-03-02T13:48:32.730Z,23.77
2023-03-02T13:51:17.979Z,23.50
2023-03-02T13:54:00.036Z,16.05
2023-03-02T13:56:34.087Z,18.95
2023-03-02T13:59:02.163Z,19.35
2023-03-02T14:01:28.959Z,26.08
2023-03-02T14:03:57.374Z,21.58
2023-03-02T14:06:23.905Z,19.52
2023-03-02T14:08:50.288Z,18.42
2023-03-02T14:11:18.294Z,18.23
2023-03-02T14:14:06.254Z,21.13
2023-03-02T14:16:35.934Z,16.85
2023-03-02T14:19:03.302Z,19.27
2023-03-02T14:21:29.810Z,17.40
2023-03-02T14:23:58.535Z,22.88
2023-03-02T14:26:37.154Z,26.42
2023-03-02T14:29:20.887Z,27.48
2023-03-02T14:31:48.167Z,21.08
2023-03-02T14:34:16.144Z,17.85
2023-03-02T14:36:46.071Z,17.92
2023-03-02T14:39:35.550Z,25.02
2023-03-02T14:42:02.581Z,22.73
2023-03-02T14:44:29.003Z,21.15
2023-03-02T14:46:57.042Z,17.45
2023-03-02T14:49:23.476Z,22.83
2023-03-02T14:52:16.008Z,23.10
2023-03-02T14:54:56.232Z,20.23
2023-03-02T14:57:25.391Z,29.70
2023-03-02T14:59:53.216Z,19.83
2023-03-02T15:02:25.827Z,17.80
2023-03-02T15:04:55.980Z,18.90
2023-03-02T15:07:24.961Z,25.58
2023-03-02T15:09:51.375Z,18.92
2023-03-02T15:12:17.828Z,26.75
2023-03-02T15:14:44.220Z,24.83
2023-03-02T15:17:10.651Z,22.15
2023-03-02T15:19:37.059Z,20.70
2023-03-02T15:22:04.244Z,23.05
2023-03-02T15:24:33.241Z,18.20
2023-03-02T15:27:00.583Z,17.95
2023-03-02T15:29:27.176Z,19.48
2023-03-02T15:31:53.856Z,15.80
2023-03-02T15:34:20.351Z,19.70
2023-03-02T15:36:46.787Z,15.75
2023-03-02T15:39:14.340Z,16.30
2023-03-02T15:41:44.039Z,18.50
2023-03-02T15:44:21.704Z,19.05
2023-03-02T15:46:49.509Z,18.15
2023-03-02T15:49:15.980Z,15.50
2023-03-02T15:51:42.452Z,14.32
2023-03-02T15:54:10.779Z,17.30
2023-03-02T15:56:43.972Z,18.05
2023-03-02T15:59:11.520Z,18.13
2023-03-02T16:01:37.928Z,19.10
2023-03-02T16:04:04.350Z,13.20
2023-03-02T16:06:30.788Z,13.70
2023-03-02T16:08:57.175Z,13.60
2023-03-02T16:11:23.612Z,14.43
2023-03-02T16:13:52.079Z,18.05
2023-03-02T16:16:20.651Z,16.38
2023-03-02T16:18:51.313Z,21.00
2023-03-02T16:21:17.817Z,18.17
2023-03-02T16:23:44.956Z,16.10
2023-03-02T16:26:14.561Z,19.45
2023-03-02T16:28:41.321Z,17.55
2023-03-02T16:31:11.737Z,18.50
2023-03-02T16:33:39.613Z,26.90
2023-03-02T16:36:07.002Z,17.75
2023-03-02T16:38:34.107Z,22.65
2023-03-02T16:41:01.196Z,16.33
2023-03-02T16:43:28.278Z,17.15
2023-03-02T16:45:55.169Z,19.08
2023-03-02T16:48:21.769Z,26.58
2023-03-02T16:50:55.708Z,29.13
2023-03-02T16:53:22.158Z,41.00
2023-03-02T16:55:50.001Z,42.85
2023-03-02T16:58:16.430Z,39.97
2023-03-02T17:00:42.938Z,59.10
2023-03-02T17:03:09.358Z,77.65
2023-03-02T17:05:35.929Z,51.85
2023-03-02T17:08:02.772Z,42.40
2023-03-02T17:10:29.213Z,38.05
2023-03-02T17:12:55.692Z,32.67
2023-03-02T17:15:22.140Z,41.50
2023-03-02T17:17:48.520Z,43.58
2023-03-02T17:20:15.028Z,34.47
2023-03-02T17:22:41.549Z,35.10
2023-03-02T17:25:08.885Z,36.38
2023-03-02T17:27:35.357Z,36.83
2023-03-02T17:30:01.892Z,37.28
2023-03-02T17:32:28.397Z,39.17
2023-03-02T17:34:55.013Z,29.85
2023-03-02T17:37:21.437Z,33.20
2023-03-02T17:39:51.074Z,47.20
2023-03-02T17:42:18.062Z,39.42
2023-03-02T17:44:45.017Z,36.22
2023-03-02T17:47:13.961Z,44.47
2023-03-02T17:49:43.520Z,40.20
2023-03-02T17:52:09.950Z,46.35
2023-03-02T17:54:36.369Z,42.42
2023-03-02T17:57:02.834Z,41.17
2023-03-02T17:59:29.416Z,51.50
2023-03-02T18:01:56.314Z,48.78
2023-03-02T18:04:23.157Z,48.72
2023-03-02T18:06:50.779Z,46.88
2023-03-02T18:09:18.364Z,48.58
2023-03-02T18:11:45.421Z,45.28
2023-03-02T18:14:18.178Z,38.20
2023-03-02T18:16:45.063Z,59.20
2023-03-02T18:19:12.131Z,59.50
2023-03-02T18:21:41.613Z,54.13
2023-03-02T18:24:09.278Z,57.15
2023-03-02T18:26:35.728Z,47.35
2023-03-02T18:29:02.287Z,42.80
2023-03-02T18:31:28.953Z,45.92
2023-03-02T18:33:55.459Z,40.95
2023-03-02T18:36:21.886Z,49.72
2023-03-02T18:38:48.313Z,43.15
2023-03-02T18:41:14.762Z,59.35
2023-03-02T18:43:41.882Z,53.97
2023-03-02T18:46:23.161Z,47.97
2023-03-02T18:48:50.559Z,47.63
2023-03-02T18:51:18.560Z,44.22
2023-03-02T18:53:45.860Z,46.40
2023-03-02T18:56:12.743Z,43.80
2023-03-02T18:58:39.614Z,47.33
2023-03-02T19:01:06.851Z,56.08
2023-03-02T19:03:35.451Z,55.50
2023-03-02T19:06:01.889Z,51.40
2023-03-02T19:08:29.498Z,58.88
2023-03-02T19:10:56.042Z,52.00
2023-03-02T19:13:23.322Z,53.10
2023-03-02T19:15:50.225Z,53.38
2023-03-02T19:18:18.653Z,46.38
2023-03-02T19:20:46.343Z,48.42
2023-03-02T19:23:13.419Z,48.78
2023-03-02T19:25:40.256Z,57.70
2023-03-02T19:28:07.860Z,47.85
2023-03-02T19:30:36.630Z,48.35
2023-03-02T19:33:06.442Z,51.65
2023-03-02T19:35:34.222Z,53.30
2023-03-02T19:38:01.228Z,58.33
2023-03-02T19:40:30.104Z,57.13
2023-03-02T19:42:57.238Z,50.92
2023-03-02T19:45:27.344Z,55.33
2023-03-02T19:47:55.757Z,54.60
2023-03-02T19:50:23.771Z,74.43
2023-03-02T19:52:52.428Z,65.50
2023-03-02T19:55:20.087Z,66.15
2023-03-02T19:57:51.237Z,63.05
2023-03-02T20:00:19.637Z,62.40
2023-03-02T20:02:47.184Z,54.20
2023-03-02T20:05:14.421Z,58.58
2023-03-02T20:07:42.064Z,58.33
2023-03-02T20:10:09.661Z,51.53
2023-03-02T20:12:36.890Z,51.42
2023-03-02T20:15:05.137Z,61.20
2023-03-02T20:17:31.657Z,56.70
2023-03-02T20:19:58.524Z,60.30
2023-03-02T20:22:25.822Z,65.03
2023-03-02T20:24:52.425Z,58.30
2023-03-02T20:27:18.918Z,59.70
2023-03-02T20:29:45.568Z,58.35
2023-03-02T20:32:12.897Z,58.30
2023-03-02T20:34:41.817Z,60.78
2023-03-02T20:37:08.690Z,67.95
2023-03-02T20:39:38.801Z,72.60
2023-03-02T20:42:06.522Z,64.60
2023-03-02T20:44:33.378Z,70.40
2023-03-02T20:47:02.859Z,69.50
2023-03-02T20:49:30.357Z,72.60
2023-03-02T20:51:59.498Z,62.90
2023-03-02T20:54:30.169Z,57.92
2023-03-02T20:56:57.535Z,58.05
2023-03-02T20:59:25.199Z,59.47
2023-03-02T21:01:52.051Z,65.15
2023-03-02T21:04:18.707Z,62.00
2023-03-02T21:06:46.146Z,61.20
2023-03-02T21:09:13.651Z,61.22
2023-03-02T21:11:40.909Z,65.75
2023-03-02T21:14:07.473Z,62.42
2023-03-02T21:16:37.833Z,66.68
2023-03-02T21:19:06.506Z,59.77
2023-03-02T21:21:41.424Z,63.40
2023-03-02T21:24:10.204Z,75.07
2023-03-02T21:26:36.871Z,69.50
2023-03-02T21:29:05.222Z,68.10
2023-03-02T21:31:32.271Z,63.05
2023-03-02T21:34:00.054Z,72.00
2023-03-02T21:36:27.519Z,66.70
2023-03-02T21:38:54.539Z,69.40
2023-03-02T21:41:21.271Z,67.78
2023-03-02T21:43:48.436Z,61.58
2023-03-02T21:46:18.365Z,63.97
2023-03-02T21:48:45.898Z,69.65
2023-03-02T21:51:13.713Z,58.00
2023-03-02T21:53:40.218Z,68.95
2023-03-02T21:56:07.375Z,65.47
2023-03-02T21:58:33.868Z,65.15
2023-03-02T22:01:00.802Z,61.88
2023-03-02T22:03:27.303Z,57.95
2023-03-02T22:05:53.754Z,66.22
2023-03-02T22:08:20.991Z,65.85
2023-03-02T22:10:51.980Z,65.45
2023-03-02T22:13:32.302Z,61.58
2023-03-02T22:16:23.014Z,64.30
2023-03-02T22:18:54.099Z,64.97
2023-03-02T22:21:29.009Z,61.63
2023-03-02T22:24:11.030Z,63.47
2023-03-02T22:26:41.137Z,66.10
2023-03-02T22:29:26.379Z,58.53
2023-03-02T22:31:55.265Z,64.32
2023-03-02T22:34:26.000Z,70.70
2023-03-02T22:36:59.333Z,62.88
2023-03-02T22:39:33.536Z,69.72
2023-03-02T22:42:07.191Z,65.10
2023-03-02T22:44:34.236Z,66.60
2023-03-02T22:47:01.514Z,72.82
2023-03-02T22:49:29.694Z,71.80
2023-03-02T22:52:03.324Z,68.88
2023-03-02T22:54:37.554Z,69.70
2023-03-02T22:57:15.304Z,68.55
2023-03-02T22:59:41.696Z,67.97
2023-03-02T23:02:15.285Z,67.50
2023-03-02T23:04:42.138Z,66.35
2023-03-02T23:07:19.130Z,69.05
2023-03-02T23:09:46.097Z,75.65
2023-03-02T23:12:27.871Z,83.13
2023-03-02T23:14:58.698Z,75.43
2023-03-02T23:17:39.309Z,70.65
2023-03-02T23:20:08.949Z,67.03
2023-03-02T23:22:36.563Z,75.18
2023-03-02T23:25:03.611Z,75.22
2023-03-02T23:27:30.218Z,70.95
2023-03-02T23:29:56.625Z,70.13
2023-03-02T23:32:23.220Z,72.85
2023-03-02T23:34:50.156Z,68.65
2023-03-02T23:37:16.724Z,70.72
2023-03-02T23:39:45.729Z,76.13
2023-03-02T23:42:12.639Z,70.25
2023-03-02T23:44:39.048Z,72.85
2023-03-02T23:47:05.493Z,73.68
2023-03-02T23:49:32.201Z,69.25
2023-03-02T23:51:58.609Z,65.72
2023-03-02T23:54:25.054Z,71.28
2023-03-02T23:56:51.431Z,72.18
2023-03-02T23:59:17.858Z,74.65
